Santana do Matos, Brazil
Current Conditions -  °F | °C
As of 8:00 AM on Saturday 22 Nov 2014 (Local Time) from SBMS Reporting Station
Broken Clouds Broken Clouds  
Wind Chill: 86°   Ceiling: 2000
Heat Index: 90°   Visibility: 6mi
Dew Point: 70°   Wind: 9mph
Humidity: 58%   Direction: 80°E
Pressure: 29.91"   Gusts: NA
Location:  5.96°S, 36.66°W
Report Text: SBMS 221100Z 08008KT 9999 BKN020 30/21 Q1013
Loading
Personal Weather Stations






























Interactive Weather Map New forecast layout! Learn more

10-Day Weather Forecast

Advertisements
Track Severe Weather on mobile